sensor_id;sensor_type;location;lat;lon;timestamp;temperature;humidity
25208;DHT22;13153;52.316;21.166;2023-05-13T00:00:37;11.60;99.90
25208;DHT22;13153;52.316;21.166;2023-05-13T00:03:02;11.50;99.90
25208;DHT22;13153;52.316;21.166;2023-05-13T00:05:28;11.50;99.90
25208;DHT22;13153;52.316;21.166;2023-05-13T00:07:54;11.50;99.90
25208;DHT22;13153;52.316;21.166;2023-05-13T00:10:20;11.50;99.90
25208;DHT22;13153;52.316;21.166;2023-05-13T00:12:46;11.40;99.90
25208;DHT22;13153;52.316;21.166;2023-05-13T00:15:12;11.40;99.90
25208;DHT22;13153;52.316;21.166;2023-05-13T00:17:38;11.40;99.90
25208;DHT22;13153;52.316;21.166;2023-05-13T00:20:04;11.30;99.90
25208;DHT22;13153;52.316;21.166;2023-05-13T00:22:31;11.30;99.90
25208;DHT22;13153;52.316;21.166;2023-05-13T00:24:57;11.30;99.90
25208;DHT22;13153;52.316;21.166;2023-05-13T00:27:23;11.20;99.90
25208;DHT22;13153;52.316;21.166;2023-05-13T00:29:48;11.30;99.90
25208;DHT22;13153;52.316;21.166;2023-05-13T00:32:14;11.30;99.90
25208;DHT22;13153;52.316;21.166;2023-05-13T00:34:40;11.20;99.90
25208;DHT22;13153;52.316;21.166;2023-05-13T00:37:06;11.20;99.90
25208;DHT22;13153;52.316;21.166;2023-05-13T00:39:34;11.10;99.90
25208;DHT22;13153;52.316;21.166;2023-05-13T00:42:00;11.10;99.90
25208;DHT22;13153;52.316;21.166;2023-05-13T00:44:27;11.00;99.90
25208;DHT22;13153;52.316;21.166;2023-05-13T00:46:53;11.00;99.90
25208;DHT22;13153;52.316;21.166;2023-05-13T00:49:19;10.90;99.90
25208;DHT22;13153;52.316;21.166;2023-05-13T00:51:45;10.90;99.90
25208;DHT22;13153;52.316;21.166;2023-05-13T00:54:10;10.90;99.90
25208;DHT22;13153;52.316;21.166;2023-05-13T00:56:37;10.80;99.90
25208;DHT22;13153;52.316;21.166;2023-05-13T00:59:03;10.80;99.90
25208;DHT22;13153;52.316;21.166;2023-05-13T01:13:13;10.50;99.90
25208;DHT22;13153;52.316;21.166;2023-05-13T01:15:59;10.50;99.90
25208;DHT22;13153;52.316;21.166;2023-05-13T01:18:35;10.50;99.90
25208;DHT22;13153;52.316;21.166;2023-05-13T01:21:04;10.40;99.90
25208;DHT22;13153;52.316;21.166;2023-05-13T01:23:31;10.40;99.90
25208;DHT22;13153;52.316;21.166;2023-05-13T01:25:57;10.40;99.90
25208;DHT22;13153;52.316;21.166;2023-05-13T01:28:23;10.40;99.90
25208;DHT22;13153;52.316;21.166;2023-05-13T01:30:49;10.30;99.90
25208;DHT22;13153;52.316;21.166;2023-05-13T01:33:16;10.30;99.90
25208;DHT22;13153;52.316;21.166;2023-05-13T01:35:44;10.30;99.90
25208;DHT22;13153;52.316;21.166;2023-05-13T01:38:12;10.30;99.90
25208;DHT22;13153;52.316;21.166;2023-05-13T01:40:40;10.30;99.90
25208;DHT22;13153;52.316;21.166;2023-05-13T01:43:06;10.30;99.90
25208;DHT22;13153;52.316;21.166;2023-05-13T01:45:32;10.30;99.90
25208;DHT22;13153;52.316;21.166;2023-05-13T01:47:58;10.30;99.90
25208;DHT22;13153;52.316;21.166;2023-05-13T01:50:24;10.30;99.90
25208;DHT22;13153;52.316;21.166;2023-05-13T01:52:50;10.30;99.90
25208;DHT22;13153;52.316;21.166;2023-05-13T01:55:16;10.20;99.90
25208;DHT22;13153;52.316;21.166;2023-05-13T01:57:42;10.20;99.90
25208;DHT22;13153;52.316;21.166;2023-05-13T02:00:08;10.20;99.90
25208;DHT22;13153;52.316;21.166;2023-05-13T02:02:34;10.20;99.90
25208;DHT22;13153;52.316;21.166;2023-05-13T02:05:00;10.10;99.90
25208;DHT22;13153;52.316;21.166;2023-05-13T02:07:26;10.00;99.90
25208;DHT22;13153;52.316;21.166;2023-05-13T02:09:52;10.00;99.90
25208;DHT22;13153;52.316;21.166;2023-05-13T02:12:24;9.90;99.90
25208;DHT22;13153;52.316;21.166;2023-05-13T02:14:53;9.90;99.90
25208;DHT22;13153;52.316;21.166;2023-05-13T02:17:20;9.80;99.90
25208;DHT22;13153;52.316;21.166;2023-05-13T02:19:46;9.70;99.90
25208;DHT22;13153;52.316;21.166;2023-05-13T02:22:12;9.70;99.90
25208;DHT22;13153;52.316;21.166;2023-05-13T02:24:38;9.70;99.90
25208;DHT22;13153;52.316;21.166;2023-05-13T02:27:05;9.70;99.90
25208;DHT22;13153;52.316;21.166;2023-05-13T02:29:32;9.70;99.90
25208;DHT22;13153;52.316;21.166;2023-05-13T02:31:59;9.70;99.90
25208;DHT22;13153;52.316;21.166;2023-05-13T02:34:25;9.70;99.90
25208;DHT22;13153;52.316;21.166;2023-05-13T02:36:51;9.70;99.90
25208;DHT22;13153;52.316;21.166;2023-05-13T02:39:17;9.80;99.90
25208;DHT22;13153;52.316;21.166;2023-05-13T02:41:42;9.70;99.90
25208;DHT22;13153;52.316;21.166;2023-05-13T02:44:11;9.70;99.90
25208;DHT22;13153;52.316;21.166;2023-05-13T02:46:37;9.60;99.90
25208;DHT22;13153;52.316;21.166;2023-05-13T02:49:02;9.60;99.90
25208;DHT22;13153;52.316;21.166;2023-05-13T02:51:28;9.50;99.90
25208;DHT22;13153;52.316;21.166;2023-05-13T02:53:54;9.60;99.90
25208;DHT22;13153;52.316;21.166;2023-05-13T02:56:20;9.50;99.90
25208;DHT22;13153;52.316;21.166;2023-05-13T02:58:46;9.50;99.90
25208;DHT22;13153;52.316;21.166;2023-05-13T03:01:11;9.60;99.90
25208;DHT22;13153;52.316;21.166;2023-05-13T03:03:37;9.60;99.90
25208;DHT22;13153;52.316;21.166;2023-05-13T03:06:04;9.70;99.90
25208;DHT22;13153;52.316;21.166;2023-05-13T03:08:30;9.80;99.90
25208;DHT22;13153;52.316;21.166;2023-05-13T03:10:57;9.90;99.90
25208;DHT22;13153;52.316;21.166;2023-05-13T03:13:23;10.10;99.90
25208;DHT22;13153;52.316;21.166;2023-05-13T03:15:49;10.20;99.90
25208;DHT22;13153;52.316;21.166;2023-05-13T03:18:15;10.40;99.90
25208;DHT22;13153;52.316;21.166;2023-05-13T03:20:41;10.60;99.90
25208;DHT22;13153;52.316;21.166;2023-05-13T03:23:06;10.70;99.90
25208;DHT22;13153;52.316;21.166;2023-05-13T03:25:32;10.70;99.90
25208;DHT22;13153;52.316;21.166;2023-05-13T03:27:58;10.80;99.90
25208;DHT22;13153;52.316;21.166;2023-05-13T03:30:24;10.90;99.90
25208;DHT22;13153;52.316;21.166;2023-05-13T03:32:49;10.90;99.90
25208;DHT22;13153;52.316;21.166;2023-05-13T03:35:15;10.90;99.90
25208;DHT22;13153;52.316;21.166;2023-05-13T03:37:41;10.80;99.90
25208;DHT22;13153;52.316;21.166;2023-05-13T03:40:07;10.80;99.90
25208;DHT22;13153;52.316;21.166;2023-05-13T03:42:33;10.90;99.90
25208;DHT22;13153;52.316;21.166;2023-05-13T03:44:59;10.90;99.90
25208;DHT22;13153;52.316;21.166;2023-05-13T03:47:25;10.90;99.90
25208;DHT22;13153;52.316;21.166;2023-05-13T03:49:50;10.90;99.90
25208;DHT22;13153;52.316;21.166;2023-05-13T03:52:16;10.80;99.90
25208;DHT22;13153;52.316;21.166;2023-05-13T03:54:42;10.70;99.90
25208;DHT22;13153;52.316;21.166;2023-05-13T03:57:08;10.70;99.90
25208;DHT22;13153;52.316;21.166;2023-05-13T03:59:33;10.70;99.90
25208;DHT22;13153;52.316;21.166;2023-05-13T04:01:59;10.70;99.90
25208;DHT22;13153;52.316;21.166;2023-05-13T04:04:25;10.70;99.90
25208;DHT22;13153;52.316;21.166;2023-05-13T04:06:51;10.70;99.90
25208;DHT22;13153;52.316;21.166;2023-05-13T04:09:17;10.80;99.90
25208;DHT22;13153;52.316;21.166;2023-05-13T04:11:42;10.90;99.90
25208;DHT22;13153;52.316;21.166;2023-05-13T04:14:08;11.10;99.90
25208;DHT22;13153;52.316;21.166;2023-05-13T04:16:34;11.20;99.90
25208;DHT22;13153;52.316;21.166;2023-05-13T04:19:00;11.40;99.90
25208;DHT22;13153;52.316;21.166;2023-05-13T04:21:26;11.90;99.90
25208;DHT22;13153;52.316;21.166;2023-05-13T04:23:52;12.60;99.90
25208;DHT22;13153;52.316;21.166;2023-05-13T04:26:17;13.50;99.90
25208;DHT22;13153;52.316;21.166;2023-05-13T04:28:44;14.20;99.90
25208;DHT22;13153;52.316;21.166;2023-05-13T04:31:10;14.60;99.90
25208;DHT22;13153;52.316;21.166;2023-05-13T04:33:36;14.80;99.90
25208;DHT22;13153;52.316;21.166;2023-05-13T04:36:02;15.10;99.90
25208;DHT22;13153;52.316;21.166;2023-05-13T04:38:29;15.50;99.90
25208;DHT22;13153;52.316;21.166;2023-05-13T04:40:55;16.10;99.90
25208;DHT22;13153;52.316;21.166;2023-05-13T04:43:21;16.70;99.90
25208;DHT22;13153;52.316;21.166;2023-05-13T04:45:47;17.30;99.90
25208;DHT22;13153;52.316;21.166;2023-05-13T04:48:14;17.80;99.90
25208;DHT22;13153;52.316;21.166;2023-05-13T04:50:44;18.40;99.90
25208;DHT22;13153;52.316;21.166;2023-05-13T04:53:11;19.20;99.90
25208;DHT22;13153;52.316;21.166;2023-05-13T04:55:38;20.10;99.90
25208;DHT22;13153;52.316;21.166;2023-05-13T04:58:03;21.10;96.10
25208;DHT22;13153;52.316;21.166;2023-05-13T05:00:29;21.90;90.60
25208;DHT22;13153;52.316;21.166;2023-05-13T05:02:55;22.90;85.90
25208;DHT22;13153;52.316;21.166;2023-05-13T05:05:21;23.90;78.60
25208;DHT22;13153;52.316;21.166;2023-05-13T05:07:47;24.90;71.90
25208;DHT22;13153;52.316;21.166;2023-05-13T05:10:12;25.90;64.80
25208;DHT22;13153;52.316;21.166;2023-05-13T05:12:40;26.60;62.40
25208;DHT22;13153;52.316;21.166;2023-05-13T05:15:07;27.30;58.90
25208;DHT22;13153;52.316;21.166;2023-05-13T05:17:41;28.20;57.90
25208;DHT22;13153;52.316;21.166;2023-05-13T05:20:08;29.20;53.90
25208;DHT22;13153;52.316;21.166;2023-05-13T05:22:38;29.70;51.00
25208;DHT22;13153;52.316;21.166;2023-05-13T05:25:06;30.50;50.40
25208;DHT22;13153;52.316;21.166;2023-05-13T05:27:34;31.20;49.20
25208;DHT22;13153;52.316;21.166;2023-05-13T05:29:59;31.70;46.60
25208;DHT22;13153;52.316;21.166;2023-05-13T05:32:25;32.10;45.50
25208;DHT22;13153;52.316;21.166;2023-05-13T05:34:51;32.10;44.60
25208;DHT22;13153;52.316;21.166;2023-05-13T05:37:17;31.90;44.60
25208;DHT22;13153;52.316;21.166;2023-05-13T05:39:42;31.00;45.00
25208;DHT22;13153;52.316;21.166;2023-05-13T05:42:08;30.40;45.90
25208;DHT22;13153;52.316;21.166;2023-05-13T05:44:34;30.40;46.70
25208;DHT22;13153;52.316;21.166;2023-05-13T05:47:00;30.60;45.20
25208;DHT22;13153;52.316;21.166;2023-05-13T05:49:26;30.60;45.80
25208;DHT22;13153;52.316;21.166;2023-05-13T05:51:52;31.20;45.60
25208;DHT22;13153;52.316;21.166;2023-05-13T05:54:17;31.90;45.50
25208;DHT22;13153;52.316;21.166;2023-05-13T05:56:43;32.60;44.00
25208;DHT22;13153;52.316;21.166;2023-05-13T05:59:09;33.00;43.40
25208;DHT22;13153;52.316;21.166;2023-05-13T06:01:35;33.60;41.80
25208;DHT22;13153;52.316;21.166;2023-05-13T06:04:04;34.20;41.00
25208;DHT22;13153;52.316;21.166;2023-05-13T06:06:31;34.40;41.50
25208;DHT22;13153;52.316;21.166;2023-05-13T06:08:57;34.80;39.80
25208;DHT22;13153;52.316;21.166;2023-05-13T06:11:23;35.10;39.00
25208;DHT22;13153;52.316;21.166;2023-05-13T06:13:48;35.10;38.60
25208;DHT22;13153;52.316;21.166;2023-05-13T06:16:15;35.20;38.80
25208;DHT22;13153;52.316;21.166;2023-05-13T06:18:41;35.50;38.30
25208;DHT22;13153;52.316;21.166;2023-05-13T06:21:07;35.70;38.30
25208;DHT22;13153;52.316;21.166;2023-05-13T06:23:33;35.90;38.50
25208;DHT22;13153;52.316;21.166;2023-05-13T06:25:59;36.10;36.90
25208;DHT22;13153;52.316;21.166;2023-05-13T06:28:25;36.40;37.40
25208;DHT22;13153;52.316;21.166;2023-05-13T06:30:50;36.40;36.20
25208;DHT22;13153;52.316;21.166;2023-05-13T06:33:17;36.30;35.50
25208;DHT22;13153;52.316;21.166;2023-05-13T06:35:43;36.30;36.40
25208;DHT22;13153;52.316;21.166;2023-05-13T06:38:12;36.40;35.10
25208;DHT22;13153;52.316;21.166;2023-05-13T06:40:38;36.40;35.40
25208;DHT22;13153;52.316;21.166;2023-05-13T06:43:04;36.50;34.90
25208;DHT22;13153;52.316;21.166;2023-05-13T06:45:30;36.50;34.20
25208;DHT22;13153;52.316;21.166;2023-05-13T06:47:56;36.70;34.20
25208;DHT22;13153;52.316;21.166;2023-05-13T06:50:22;36.90;35.10
25208;DHT22;13153;52.316;21.166;2023-05-13T06:52:47;37.20;33.60
25208;DHT22;13153;52.316;21.166;2023-05-13T06:55:13;37.70;35.00
25208;DHT22;13153;52.316;21.166;2023-05-13T06:57:41;38.30;34.30
25208;DHT22;13153;52.316;21.166;2023-05-13T07:00:10;38.70;34.10
25208;DHT22;13153;52.316;21.166;2023-05-13T07:02:36;39.00;31.90
25208;DHT22;13153;52.316;21.166;2023-05-13T07:05:02;39.10;31.90
25208;DHT22;13153;52.316;21.166;2023-05-13T07:07:29;39.40;31.30
25208;DHT22;13153;52.316;21.166;2023-05-13T07:09:55;39.50;31.40
25208;DHT22;13153;52.316;21.166;2023-05-13T07:12:21;39.50;31.00
25208;DHT22;13153;52.316;21.166;2023-05-13T07:14:47;39.50;30.70
25208;DHT22;13153;52.316;21.166;2023-05-13T07:17:12;39.20;30.50
25208;DHT22;13153;52.316;21.166;2023-05-13T07:19:38;39.40;30.90
25208;DHT22;13153;52.316;21.166;2023-05-13T07:22:04;39.70;31.40
25208;DHT22;13153;52.316;21.166;2023-05-13T07:24:30;39.90;31.80
25208;DHT22;13153;52.316;21.166;2023-05-13T07:26:55;40.20;30.40
25208;DHT22;13153;52.316;21.166;2023-05-13T07:29:21;40.00;31.40
25208;DHT22;13153;52.316;21.166;2023-05-13T07:31:47;40.00;30.00
25208;DHT22;13153;52.316;21.166;2023-05-13T07:34:13;40.00;29.80
25208;DHT22;13153;52.316;21.166;2023-05-13T07:36:38;40.00;30.20
25208;DHT22;13153;52.316;21.166;2023-05-13T07:39:05;39.90;30.00
25208;DHT22;13153;52.316;21.166;2023-05-13T07:41:33;39.80;30.50
25208;DHT22;13153;52.316;21.166;2023-05-13T07:44:01;39.60;30.50
25208;DHT22;13153;52.316;21.166;2023-05-13T07:46:26;39.70;31.20
25208;DHT22;13153;52.316;21.166;2023-05-13T07:48:52;39.50;29.90
25208;DHT22;13153;52.316;21.166;2023-05-13T07:51:18;39.10;29.70
25208;DHT22;13153;52.316;21.166;2023-05-13T07:53:44;38.50;30.70
25208;DHT22;13153;52.316;21.166;2023-05-13T07:56:11;37.70;31.30
25208;DHT22;13153;52.316;21.166;2023-05-13T07:58:37;36.70;32.10
25208;DHT22;13153;52.316;21.166;2023-05-13T08:01:03;35.80;32.90
25208;DHT22;13153;52.316;21.166;2023-05-13T08:03:29;34.70;33.80
25208;DHT22;13153;52.316;21.166;2023-05-13T08:05:55;33.70;35.70
25208;DHT22;13153;52.316;21.166;2023-05-13T08:08:21;32.60;35.90
25208;DHT22;13153;52.316;21.166;2023-05-13T08:10:47;31.20;37.40
25208;DHT22;13153;52.316;21.166;2023-05-13T08:13:13;30.00;39.20
25208;DHT22;13153;52.316;21.166;2023-05-13T08:15:39;29.20;42.70
25208;DHT22;13153;52.316;21.166;2023-05-13T08:18:05;28.40;42.00
25208;DHT22;13153;52.316;21.166;2023-05-13T08:20:31;27.70;43.90
25208;DHT22;13153;52.316;21.166;2023-05-13T08:22:57;27.10;43.90
25208;DHT22;13153;52.316;21.166;2023-05-13T08:25:23;26.50;44.80
25208;DHT22;13153;52.316;21.166;2023-05-13T08:27:49;26.00;45.00
25208;DHT22;13153;52.316;21.166;2023-05-13T08:30:15;25.60;43.50
25208;DHT22;13153;52.316;21.166;2023-05-13T08:32:41;25.20;42.30
25208;DHT22;13153;52.316;21.166;2023-05-13T08:35:07;24.90;43.50
25208;DHT22;13153;52.316;21.166;2023-05-13T08:37:33;24.60;44.20
25208;DHT22;13153;52.316;21.166;2023-05-13T08:39:59;24.50;44.10
25208;DHT22;13153;52.316;21.166;2023-05-13T08:42:32;24.30;44.70
25208;DHT22;13153;52.316;21.166;2023-05-13T08:45:03;24.30;44.60
25208;DHT22;13153;52.316;21.166;2023-05-13T08:47:50;24.00;44.00
25208;DHT22;13153;52.316;21.166;2023-05-13T08:50:27;23.80;46.20
25208;DHT22;13153;52.316;21.166;2023-05-13T08:52:54;23.60;45.80
25208;DHT22;13153;52.316;21.166;2023-05-13T08:55:21;23.30;47.30
25208;DHT22;13153;52.316;21.166;2023-05-13T08:57:48;23.20;48.20
25208;DHT22;13153;52.316;21.166;2023-05-13T09:00:15;23.30;45.80
25208;DHT22;13153;52.316;21.166;2023-05-13T09:02:41;23.40;45.00
25208;DHT22;13153;52.316;21.166;2023-05-13T09:05:08;23.30;43.60
25208;DHT22;13153;52.316;21.166;2023-05-13T09:07:36;23.10;45.30
25208;DHT22;13153;52.316;21.166;2023-05-13T09:10:03;23.10;42.90
25208;DHT22;13153;52.316;21.166;2023-05-13T09:15:13;23.10;43.30
25208;DHT22;13153;52.316;21.166;2023-05-13T09:17:46;23.00;43.20
25208;DHT22;13153;52.316;21.166;2023-05-13T09:20:15;22.80;43.90
25208;DHT22;13153;52.316;21.166;2023-05-13T09:25:30;22.80;44.10
25208;DHT22;13153;52.316;21.166;2023-05-13T09:27:59;23.00;43.10
25208;DHT22;13153;52.316;21.166;2023-05-13T09:30:27;23.00;43.00
25208;DHT22;13153;52.316;21.166;2023-05-13T09:33:12;23.00;42.00
25208;DHT22;13153;52.316;21.166;2023-05-13T09:35:51;23.10;42.60
25208;DHT22;13153;52.316;21.166;2023-05-13T09:38:19;23.10;43.80
25208;DHT22;13153;52.316;21.166;2023-05-13T09:40:56;23.10;42.50
25208;DHT22;13153;52.316;21.166;2023-05-13T09:43:27;23.10;42.30
25208;DHT22;13153;52.316;21.166;2023-05-13T09:46:00;23.10;42.50
25208;DHT22;13153;52.316;21.166;2023-05-13T09:48:28;23.10;44.40
25208;DHT22;13153;52.316;21.166;2023-05-13T09:50:56;22.90;42.60
25208;DHT22;13153;52.316;21.166;2023-05-13T09:53:23;22.70;43.10
25208;DHT22;13153;52.316;21.166;2023-05-13T09:55:51;22.50;43.60
25208;DHT22;13153;52.316;21.166;2023-05-13T09:58:19;22.40;43.40
25208;DHT22;13153;52.316;21.166;2023-05-13T10:00:46;22.40;43.60
25208;DHT22;13153;52.316;21.166;2023-05-13T10:03:13;22.50;45.60
25208;DHT22;13153;52.316;21.166;2023-05-13T10:05:40;22.60;44.70
25208;DHT22;13153;52.316;21.166;2023-05-13T10:08:10;22.70;43.80
25208;DHT22;13153;52.316;21.166;2023-05-13T10:10:41;22.70;43.90
25208;DHT22;13153;52.316;21.166;2023-05-13T10:13:13;22.70;45.80
25208;DHT22;13153;52.316;21.166;2023-05-13T10:15:50;22.70;43.00
25208;DHT22;13153;52.316;21.166;2023-05-13T10:18:18;22.60;44.80
25208;DHT22;13153;52.316;21.166;2023-05-13T10:20:46;22.70;46.00
25208;DHT22;13153;52.316;21.166;2023-05-13T10:23:17;22.90;46.40
25208;DHT22;13153;52.316;21.166;2023-05-13T10:25:46;22.90;45.60
25208;DHT22;13153;52.316;21.166;2023-05-13T10:28:13;22.80;44.30
25208;DHT22;13153;52.316;21.166;2023-05-13T10:30:41;22.70;44.90
25208;DHT22;13153;52.316;21.166;2023-05-13T10:33:08;22.60;46.00
25208;DHT22;13153;52.316;21.166;2023-05-13T10:35:37;22.50;45.50
25208;DHT22;13153;52.316;21.166;2023-05-13T10:38:15;22.40;46.40
25208;DHT22;13153;52.316;21.166;2023-05-13T10:43:28;22.40;45.60
25208;DHT22;13153;52.316;21.166;2023-05-13T10:45:59;22.40;46.80
25208;DHT22;13153;52.316;21.166;2023-05-13T10:51:04;22.10;45.60
25208;DHT22;13153;52.316;21.166;2023-05-13T10:53:41;22.00;46.40
25208;DHT22;13153;52.316;21.166;2023-05-13T10:56:09;21.80;46.60
25208;DHT22;13153;52.316;21.166;2023-05-13T10:58:35;21.60;47.70
25208;DHT22;13153;52.316;21.166;2023-05-13T11:01:17;21.50;46.20
25208;DHT22;13153;52.316;21.166;2023-05-13T11:03:52;21.40;47.10
25208;DHT22;13153;52.316;21.166;2023-05-13T11:06:21;21.30;47.10
25208;DHT22;13153;52.316;21.166;2023-05-13T11:08:51;21.30;46.40
25208;DHT22;13153;52.316;21.166;2023-05-13T11:11:22;21.40;46.80
25208;DHT22;13153;52.316;21.166;2023-05-13T11:16:24;21.40;46.50
25208;DHT22;13153;52.316;21.166;2023-05-13T11:18:51;21.40;45.90
25208;DHT22;13153;52.316;21.166;2023-05-13T11:21:31;21.40;46.20
25208;DHT22;13153;52.316;21.166;2023-05-13T11:24:04;21.50;47.00
25208;DHT22;13153;52.316;21.166;2023-05-13T11:26:50;21.60;47.30
25208;DHT22;13153;52.316;21.166;2023-05-13T11:29:32;21.80;47.50
25208;DHT22;13153;52.316;21.166;2023-05-13T11:32:01;21.90;46.20
25208;DHT22;13153;52.316;21.166;2023-05-13T11:34:28;22.00;46.70
25208;DHT22;13153;52.316;21.166;2023-05-13T11:39:30;21.90;45.80
25208;DHT22;13153;52.316;21.166;2023-05-13T11:41:57;21.70;46.10
25208;DHT22;13153;52.316;21.166;2023-05-13T11:44:26;21.60;46.10
25208;DHT22;13153;52.316;21.166;2023-05-13T11:46:59;21.50;45.50
25208;DHT22;13153;52.316;21.166;2023-05-13T11:49:37;21.40;46.50
25208;DHT22;13153;52.316;21.166;2023-05-13T11:54:49;21.60;46.60
25208;DHT22;13153;52.316;21.166;2023-05-13T11:59:57;21.80;46.10
25208;DHT22;13153;52.316;21.166;2023-05-13T12:02:36;22.00;46.10
25208;DHT22;13153;52.316;21.166;2023-05-13T12:05:06;22.10;45.90
25208;DHT22;13153;52.316;21.166;2023-05-13T12:07:34;22.20;45.80
25208;DHT22;13153;52.316;21.166;2023-05-13T12:10:03;22.40;45.40
25208;DHT22;13153;52.316;21.166;2023-05-13T12:12:33;22.30;45.20
25208;DHT22;13153;52.316;21.166;2023-05-13T12:15:03;22.30;45.90
25208;DHT22;13153;52.316;21.166;2023-05-13T12:17:35;22.30;45.30
25208;DHT22;13153;52.316;21.166;2023-05-13T12:22:32;22.20;46.20
25208;DHT22;13153;52.316;21.166;2023-05-13T12:24:59;22.10;45.20
25208;DHT22;13153;52.316;21.166;2023-05-13T12:27:30;22.10;46.10
25208;DHT22;13153;52.316;21.166;2023-05-13T12:29:56;22.10;46.10
25208;DHT22;13153;52.316;21.166;2023-05-13T12:32:23;22.00;46.10
25208;DHT22;13153;52.316;21.166;2023-05-13T12:34:50;22.00;45.40
25208;DHT22;13153;52.316;21.166;2023-05-13T12:37:16;22.10;47.00
25208;DHT22;13153;52.316;21.166;2023-05-13T12:39:42;22.20;46.30
25208;DHT22;13153;52.316;21.166;2023-05-13T12:42:15;22.30;45.40
25208;DHT22;13153;52.316;21.166;2023-05-13T12:44:45;22.40;45.50
25208;DHT22;13153;52.316;21.166;2023-05-13T12:47:12;22.50;44.80
25208;DHT22;13153;52.316;21.166;2023-05-13T12:49:53;22.50;44.30
25208;DHT22;13153;52.316;21.166;2023-05-13T12:52:21;22.60;44.90
25208;DHT22;13153;52.316;21.166;2023-05-13T12:54:47;22.50;43.80
25208;DHT22;13153;52.316;21.166;2023-05-13T12:57:17;22.50;43.10
25208;DHT22;13153;52.316;21.166;2023-05-13T12:59:45;22.50;44.00
25208;DHT22;13153;52.316;21.166;2023-05-13T13:02:12;22.50;45.10
25208;DHT22;13153;52.316;21.166;2023-05-13T13:04:38;22.50;44.60
25208;DHT22;13153;52.316;21.166;2023-05-13T13:07:04;22.50;44.80
25208;DHT22;13153;52.316;21.166;2023-05-13T13:09:36;22.50;44.40
25208;DHT22;13153;52.316;21.166;2023-05-13T13:12:02;22.60;44.70
25208;DHT22;13153;52.316;21.166;2023-05-13T13:14:27;22.60;44.80
25208;DHT22;13153;52.316;21.166;2023-05-13T13:16:53;22.70;44.30
25208;DHT22;13153;52.316;21.166;2023-05-13T13:19:19;22.70;42.70
25208;DHT22;13153;52.316;21.166;2023-05-13T13:21:45;22.70;43.50
25208;DHT22;13153;52.316;21.166;2023-05-13T13:24:11;22.70;42.80
25208;DHT22;13153;52.316;21.166;2023-05-13T13:26:36;22.60;43.40
25208;DHT22;13153;52.316;21.166;2023-05-13T13:29:02;22.60;44.00
25208;DHT22;13153;52.316;21.166;2023-05-13T13:31:28;22.60;44.80
25208;DHT22;13153;52.316;21.166;2023-05-13T13:33:53;22.50;46.40
25208;DHT22;13153;52.316;21.166;2023-05-13T13:36:20;22.50;45.70
25208;DHT22;13153;52.316;21.166;2023-05-13T13:38:45;22.20;46.20
25208;DHT22;13153;52.316;21.166;2023-05-13T13:41:11;22.00;46.40
25208;DHT22;13153;52.316;21.166;2023-05-13T13:43:37;21.80;47.20
25208;DHT22;13153;52.316;21.166;2023-05-13T13:46:03;21.60;47.90
25208;DHT22;13153;52.316;21.166;2023-05-13T13:48:28;21.40;48.00
25208;DHT22;13153;52.316;21.166;2023-05-13T13:50:54;21.40;47.90
25208;DHT22;13153;52.316;21.166;2023-05-13T13:53:20;21.30;47.40
25208;DHT22;13153;52.316;21.166;2023-05-13T13:55:46;21.20;47.80
25208;DHT22;13153;52.316;21.166;2023-05-13T13:58:12;21.20;47.90
25208;DHT22;13153;52.316;21.166;2023-05-13T14:00:38;21.30;47.60
25208;DHT22;13153;52.316;21.166;2023-05-13T14:03:04;21.30;48.00
25208;DHT22;13153;52.316;21.166;2023-05-13T14:05:30;21.40;47.90
25208;DHT22;13153;52.316;21.166;2023-05-13T14:07:56;21.40;48.00
25208;DHT22;13153;52.316;21.166;2023-05-13T14:10:22;21.40;48.00
25208;DHT22;13153;52.316;21.166;2023-05-13T14:12:47;21.40;49.20
25208;DHT22;13153;52.316;21.166;2023-05-13T14:15:13;21.40;49.60
25208;DHT22;13153;52.316;21.166;2023-05-13T14:17:39;21.30;49.60
25208;DHT22;13153;52.316;21.166;2023-05-13T14:20:05;21.20;48.80
25208;DHT22;13153;52.316;21.166;2023-05-13T14:22:34;21.20;48.60
25208;DHT22;13153;52.316;21.166;2023-05-13T14:25:00;21.10;48.30
25208;DHT22;13153;52.316;21.166;2023-05-13T14:27:26;21.10;48.30
25208;DHT22;13153;52.316;21.166;2023-05-13T14:29:52;21.00;48.60
25208;DHT22;13153;52.316;21.166;2023-05-13T14:32:17;21.00;49.60
25208;DHT22;13153;52.316;21.166;2023-05-13T14:34:43;20.90;49.60
25208;DHT22;13153;52.316;21.166;2023-05-13T14:37:09;20.90;49.90
25208;DHT22;13153;52.316;21.166;2023-05-13T14:39:35;20.90;50.80
25208;DHT22;13153;52.316;21.166;2023-05-13T14:42:01;20.90;50.40
25208;DHT22;13153;52.316;21.166;2023-05-13T14:44:28;20.90;49.90
25208;DHT22;13153;52.316;21.166;2023-05-13T14:46:54;21.00;50.30
25208;DHT22;13153;52.316;21.166;2023-05-13T14:49:20;21.00;49.30
25208;DHT22;13153;52.316;21.166;2023-05-13T14:51:46;21.10;49.40
25208;DHT22;13153;52.316;21.166;2023-05-13T14:54:11;21.20;48.30
25208;DHT22;13153;52.316;21.166;2023-05-13T14:56:37;21.30;48.70
25208;DHT22;13153;52.316;21.166;2023-05-13T14:59:06;21.40;48.10
25208;DHT22;13153;52.316;21.166;2023-05-13T15:01:33;21.50;48.00
25208;DHT22;13153;52.316;21.166;2023-05-13T15:03:59;21.60;47.60
25208;DHT22;13153;52.316;21.166;2023-05-13T15:06:24;21.70;48.40
25208;DHT22;13153;52.316;21.166;2023-05-13T15:08:51;21.80;47.00
25208;DHT22;13153;52.316;21.166;2023-05-13T15:11:16;21.70;48.50
25208;DHT22;13153;52.316;21.166;2023-05-13T15:13:42;21.60;49.30
25208;DHT22;13153;52.316;21.166;2023-05-13T15:16:08;21.30;50.10
25208;DHT22;13153;52.316;21.166;2023-05-13T15:18:34;21.00;51.90
25208;DHT22;13153;52.316;21.166;2023-05-13T15:20:59;20.80;52.80
25208;DHT22;13153;52.316;21.166;2023-05-13T15:23:25;20.70;53.10
25208;DHT22;13153;52.316;21.166;2023-05-13T15:25:51;20.60;52.30
25208;DHT22;13153;52.316;21.166;2023-05-13T15:28:17;20.50;52.60
25208;DHT22;13153;52.316;21.166;2023-05-13T15:30:42;20.50;52.80
25208;DHT22;13153;52.316;21.166;2023-05-13T15:33:08;20.50;53.20
25208;DHT22;13153;52.316;21.166;2023-05-13T15:35:34;20.40;53.40
25208;DHT22;13153;52.316;21.166;2023-05-13T15:38:00;20.50;53.90
25208;DHT22;13153;52.316;21.166;2023-05-13T15:40:26;20.50;53.80
25208;DHT22;13153;52.316;21.166;2023-05-13T15:42:52;20.50;53.00
25208;DHT22;13153;52.316;21.166;2023-05-13T15:45:17;20.50;53.80
25208;DHT22;13153;52.316;21.166;2023-05-13T15:47:43;20.50;53.90
25208;DHT22;13153;52.316;21.166;2023-05-13T15:50:09;20.50;54.30
25208;DHT22;13153;52.316;21.166;2023-05-13T15:52:36;20.40;54.30